sensor_id;sensor_type;location;lat;lon;timestamp;temperature;humidity
24041;DHT22;12246;47.612;18.906;2022-08-07T00:02:49;19.50;99.90
24041;DHT22;12246;47.612;18.906;2022-08-07T00:05:44;19.50;99.90
24041;DHT22;12246;47.612;18.906;2022-08-07T00:08:37;19.50;99.90
24041;DHT22;12246;47.612;18.906;2022-08-07T00:11:35;19.50;99.90
24041;DHT22;12246;47.612;18.906;2022-08-07T00:14:46;19.50;99.90
24041;DHT22;12246;47.612;18.906;2022-08-07T00:17:39;19.50;99.90
24041;DHT22;12246;47.612;18.906;2022-08-07T00:20:32;19.50;99.90
24041;DHT22;12246;47.612;18.906;2022-08-07T00:23:26;19.60;99.90
24041;DHT22;12246;47.612;18.906;2022-08-07T00:26:21;19.60;99.90
24041;DHT22;12246;47.612;18.906;2022-08-07T00:29:33;19.70;99.90
24041;DHT22;12246;47.612;18.906;2022-08-07T00:32:27;19.60;99.90
24041;DHT22;12246;47.612;18.906;2022-08-07T00:35:27;19.60;99.90
24041;DHT22;12246;47.612;18.906;2022-08-07T00:38:21;19.60;99.90
24041;DHT22;12246;47.612;18.906;2022-08-07T00:41:30;19.50;99.90
24041;DHT22;12246;47.612;18.906;2022-08-07T00:44:36;19.60;99.90
24041;DHT22;12246;47.612;18.906;2022-08-07T00:47:32;19.50;99.90
24041;DHT22;12246;47.612;18.906;2022-08-07T00:50:44;19.60;99.90
24041;DHT22;12246;47.612;18.906;2022-08-07T00:53:42;19.50;99.90
24041;DHT22;12246;47.612;18.906;2022-08-07T00:56:47;19.60;99.90
24041;DHT22;12246;47.612;18.906;2022-08-07T00:59:41;19.50;99.90
24041;DHT22;12246;47.612;18.906;2022-08-07T01:02:33;19.40;99.90
24041;DHT22;12246;47.612;18.906;2022-08-07T01:05:26;19.40;99.90
24041;DHT22;12246;47.612;18.906;2022-08-07T01:08:21;19.40;99.90
24041;DHT22;12246;47.612;18.906;2022-08-07T01:11:18;19.40;99.90
24041;DHT22;12246;47.612;18.906;2022-08-07T01:14:31;19.50;99.90
24041;DHT22;12246;47.612;18.906;2022-08-07T01:17:29;19.50;99.90
24041;DHT22;12246;47.612;18.906;2022-08-07T01:20:36;19.40;99.90
24041;DHT22;12246;47.612;18.906;2022-08-07T01:23:34;19.40;99.90
24041;DHT22;12246;47.612;18.906;2022-08-07T01:26:32;19.40;99.90
24041;DHT22;12246;47.612;18.906;2022-08-07T01:29:26;19.30;99.90
24041;DHT22;12246;47.612;18.906;2022-08-07T01:32:22;19.20;99.90
24041;DHT22;12246;47.612;18.906;2022-08-07T01:35:15;19.30;99.90
24041;DHT22;12246;47.612;18.906;2022-08-07T01:38:08;19.30;99.90
24041;DHT22;12246;47.612;18.906;2022-08-07T01:41:04;19.30;99.90
24041;DHT22;12246;47.612;18.906;2022-08-07T01:44:02;19.20;99.90
24041;DHT22;12246;47.612;18.906;2022-08-07T01:46:55;19.20;99.90
24041;DHT22;12246;47.612;18.906;2022-08-07T01:49:52;19.20;99.90
24041;DHT22;12246;47.612;18.906;2022-08-07T01:52:46;19.20;99.90
24041;DHT22;12246;47.612;18.906;2022-08-07T01:55:49;19.20;99.90
24041;DHT22;12246;47.612;18.906;2022-08-07T01:58:47;19.10;99.90
24041;DHT22;12246;47.612;18.906;2022-08-07T02:01:47;19.10;99.90
24041;DHT22;12246;47.612;18.906;2022-08-07T02:05:08;19.10;99.90
24041;DHT22;12246;47.612;18.906;2022-08-07T02:08:23;19.10;99.90
24041;DHT22;12246;47.612;18.906;2022-08-07T02:11:16;19.00;99.90
24041;DHT22;12246;47.612;18.906;2022-08-07T02:14:29;19.00;99.90
24041;DHT22;12246;47.612;18.906;2022-08-07T02:17:28;19.00;99.90
24041;DHT22;12246;47.612;18.906;2022-08-07T02:20:26;19.00;99.90
24041;DHT22;12246;47.612;18.906;2022-08-07T02:23:22;19.00;99.90
24041;DHT22;12246;47.612;18.906;2022-08-07T02:26:16;18.90;99.90
24041;DHT22;12246;47.612;18.906;2022-08-07T02:29:26;18.90;99.90
24041;DHT22;12246;47.612;18.906;2022-08-07T02:32:21;18.90;99.90
24041;DHT22;12246;47.612;18.906;2022-08-07T02:35:21;18.90;99.90
24041;DHT22;12246;47.612;18.906;2022-08-07T02:38:36;18.80;99.90
24041;DHT22;12246;47.612;18.906;2022-08-07T02:41:29;18.80;99.90
24041;DHT22;12246;47.612;18.906;2022-08-07T02:44:28;18.70;99.90
24041;DHT22;12246;47.612;18.906;2022-08-07T02:47:27;18.70;99.90
24041;DHT22;12246;47.612;18.906;2022-08-07T02:50:40;18.70;99.90
24041;DHT22;12246;47.612;18.906;2022-08-07T02:53:35;18.70;99.90
24041;DHT22;12246;47.612;18.906;2022-08-07T02:56:31;18.70;99.90
24041;DHT22;12246;47.612;18.906;2022-08-07T02:59:25;18.70;99.90
24041;DHT22;12246;47.612;18.906;2022-08-07T03:02:18;18.60;99.90
24041;DHT22;12246;47.612;18.906;2022-08-07T03:05:14;18.60;99.90
24041;DHT22;12246;47.612;18.906;2022-08-07T03:08:14;18.50;99.90
24041;DHT22;12246;47.612;18.906;2022-08-07T03:11:08;18.50;99.90
24041;DHT22;12246;47.612;18.906;2022-08-07T03:14:02;18.50;99.90
24041;DHT22;12246;47.612;18.906;2022-08-07T03:16:55;18.50;99.90
24041;DHT22;12246;47.612;18.906;2022-08-07T03:19:52;18.50;99.90
24041;DHT22;12246;47.612;18.906;2022-08-07T03:22:46;18.50;99.90
24041;DHT22;12246;47.612;18.906;2022-08-07T03:25:42;18.50;99.90
24041;DHT22;12246;47.612;18.906;2022-08-07T03:28:49;18.50;99.90
24041;DHT22;12246;47.612;18.906;2022-08-07T03:31:44;18.40;99.90
24041;DHT22;12246;47.612;18.906;2022-08-07T03:34:38;18.40;99.90
24041;DHT22;12246;47.612;18.906;2022-08-07T03:38:03;18.40;99.90
24041;DHT22;12246;47.612;18.906;2022-08-07T03:41:01;18.40;99.90
24041;DHT22;12246;47.612;18.906;2022-08-07T03:43:55;18.40;99.90
24041;DHT22;12246;47.612;18.906;2022-08-07T03:46:48;18.50;99.90
24041;DHT22;12246;47.612;18.906;2022-08-07T03:50:02;18.50;99.90
24041;DHT22;12246;47.612;18.906;2022-08-07T03:52:57;18.60;99.90
24041;DHT22;12246;47.612;18.906;2022-08-07T03:55:50;18.50;99.90
24041;DHT22;12246;47.612;18.906;2022-08-07T03:58:55;18.60;99.90
24041;DHT22;12246;47.612;18.906;2022-08-07T04:02:01;18.60;99.90
24041;DHT22;12246;47.612;18.906;2022-08-07T04:04:54;18.60;99.90
24041;DHT22;12246;47.612;18.906;2022-08-07T04:07:48;18.60;99.90
24041;DHT22;12246;47.612;18.906;2022-08-07T04:10:43;18.70;99.90
24041;DHT22;12246;47.612;18.906;2022-08-07T04:13:56;18.80;99.90
24041;DHT22;12246;47.612;18.906;2022-08-07T04:17:09;18.80;99.90
24041;DHT22;12246;47.612;18.906;2022-08-07T04:20:22;18.90;99.90
24041;DHT22;12246;47.612;18.906;2022-08-07T04:23:16;18.90;99.90
24041;DHT22;12246;47.612;18.906;2022-08-07T04:26:10;18.90;99.90
24041;DHT22;12246;47.612;18.906;2022-08-07T04:29:07;18.90;99.90
24041;DHT22;12246;47.612;18.906;2022-08-07T04:32:08;19.00;99.90
24041;DHT22;12246;47.612;18.906;2022-08-07T04:35:03;19.10;99.90
24041;DHT22;12246;47.612;18.906;2022-08-07T04:37:56;19.20;99.90
24041;DHT22;12246;47.612;18.906;2022-08-07T04:40:57;19.20;99.90
24041;DHT22;12246;47.612;18.906;2022-08-07T04:43:50;19.10;99.90
24041;DHT22;12246;47.612;18.906;2022-08-07T04:47:27;19.10;99.90
24041;DHT22;12246;47.612;18.906;2022-08-07T04:50:45;19.20;99.90
24041;DHT22;12246;47.612;18.906;2022-08-07T04:54:01;19.20;99.90
24041;DHT22;12246;47.612;18.906;2022-08-07T05:00:38;19.30;99.90
24041;DHT22;12246;47.612;18.906;2022-08-07T05:07:24;19.40;99.90
24041;DHT22;12246;47.612;18.906;2022-08-07T05:10:39;19.50;99.90
24041;DHT22;12246;47.612;18.906;2022-08-07T05:13:48;19.60;99.90
24041;DHT22;12246;47.612;18.906;2022-08-07T05:17:03;19.80;99.90
24041;DHT22;12246;47.612;18.906;2022-08-07T05:20:03;19.90;99.90
24041;DHT22;12246;47.612;18.906;2022-08-07T05:23:06;20.10;99.90
24041;DHT22;12246;47.612;18.906;2022-08-07T05:26:11;20.20;99.90
24041;DHT22;12246;47.612;18.906;2022-08-07T05:29:17;20.50;99.90
24041;DHT22;12246;47.612;18.906;2022-08-07T05:32:12;20.60;99.90
24041;DHT22;12246;47.612;18.906;2022-08-07T05:35:07;20.70;99.90
24041;DHT22;12246;47.612;18.906;2022-08-07T05:38:03;20.80;99.90
24041;DHT22;12246;47.612;18.906;2022-08-07T05:41:01;20.90;99.90
24041;DHT22;12246;47.612;18.906;2022-08-07T05:44:03;21.00;99.90
24041;DHT22;12246;47.612;18.906;2022-08-07T05:47:03;21.10;99.90
24041;DHT22;12246;47.612;18.906;2022-08-07T05:50:10;21.20;99.90
24041;DHT22;12246;47.612;18.906;2022-08-07T05:53:03;21.30;99.90
24041;DHT22;12246;47.612;18.906;2022-08-07T05:55:56;21.40;99.90
24041;DHT22;12246;47.612;18.906;2022-08-07T05:58:58;21.60;99.90
24041;DHT22;12246;47.612;18.906;2022-08-07T06:01:53;21.60;99.90
24041;DHT22;12246;47.612;18.906;2022-08-07T06:05:00;21.60;99.90
24041;DHT22;12246;47.612;18.906;2022-08-07T06:08:05;21.70;99.90
24041;DHT22;12246;47.612;18.906;2022-08-07T06:11:18;21.80;99.90
24041;DHT22;12246;47.612;18.906;2022-08-07T06:14:16;21.70;99.90
24041;DHT22;12246;47.612;18.906;2022-08-07T06:17:22;21.90;99.90
24041;DHT22;12246;47.612;18.906;2022-08-07T06:20:29;21.90;99.90
24041;DHT22;12246;47.612;18.906;2022-08-07T06:23:47;22.00;99.90
24041;DHT22;12246;47.612;18.906;2022-08-07T06:27:00;22.10;99.90
24041;DHT22;12246;47.612;18.906;2022-08-07T06:30:05;22.10;99.90
24041;DHT22;12246;47.612;18.906;2022-08-07T06:33:20;22.20;99.90
24041;DHT22;12246;47.612;18.906;2022-08-07T06:36:18;22.20;99.90
24041;DHT22;12246;47.612;18.906;2022-08-07T06:39:26;22.30;99.90
24041;DHT22;12246;47.612;18.906;2022-08-07T06:42:39;22.20;99.90
24041;DHT22;12246;47.612;18.906;2022-08-07T06:45:37;22.30;99.90
24041;DHT22;12246;47.612;18.906;2022-08-07T06:48:35;22.40;99.90
24041;DHT22;12246;47.612;18.906;2022-08-07T06:51:34;22.40;99.90
24041;DHT22;12246;47.612;18.906;2022-08-07T06:54:41;22.30;99.90
24041;DHT22;12246;47.612;18.906;2022-08-07T06:58:02;22.10;99.90
24041;DHT22;12246;47.612;18.906;2022-08-07T07:00:56;22.10;99.90
24041;DHT22;12246;47.612;18.906;2022-08-07T07:03:49;22.10;99.90
24041;DHT22;12246;47.612;18.906;2022-08-07T07:07:02;22.30;99.90
24041;DHT22;12246;47.612;18.906;2022-08-07T07:10:10;22.60;99.90
24041;DHT22;12246;47.612;18.906;2022-08-07T07:13:11;22.60;99.90
24041;DHT22;12246;47.612;18.906;2022-08-07T07:16:14;22.80;99.90
24041;DHT22;12246;47.612;18.906;2022-08-07T07:19:11;23.20;99.90
24041;DHT22;12246;47.612;18.906;2022-08-07T07:22:27;23.30;99.90
24041;DHT22;12246;47.612;18.906;2022-08-07T07:25:41;23.30;99.90
24041;DHT22;12246;47.612;18.906;2022-08-07T07:29:22;23.50;99.90
24041;DHT22;12246;47.612;18.906;2022-08-07T07:32:37;23.60;99.90
24041;DHT22;12246;47.612;18.906;2022-08-07T07:35:33;24.10;99.90
24041;DHT22;12246;47.612;18.906;2022-08-07T07:38:45;25.00;99.90
24041;DHT22;12246;47.612;18.906;2022-08-07T07:41:40;25.50;99.90
24041;DHT22;12246;47.612;18.906;2022-08-07T07:44:54;25.60;99.90
24041;DHT22;12246;47.612;18.906;2022-08-07T07:47:49;25.90;99.90
24041;DHT22;12246;47.612;18.906;2022-08-07T07:50:46;26.20;99.90
24041;DHT22;12246;47.612;18.906;2022-08-07T07:53:44;25.70;99.90
24041;DHT22;12246;47.612;18.906;2022-08-07T07:56:44;25.50;99.90
24041;DHT22;12246;47.612;18.906;2022-08-07T07:59:39;26.10;99.90
24041;DHT22;12246;47.612;18.906;2022-08-07T08:02:47;26.40;99.40
24041;DHT22;12246;47.612;18.906;2022-08-07T08:05:56;25.90;99.40
24041;DHT22;12246;47.612;18.906;2022-08-07T08:08:50;25.70;99.20
24041;DHT22;12246;47.612;18.906;2022-08-07T08:11:45;25.70;98.50
24041;DHT22;12246;47.612;18.906;2022-08-07T08:14:54;25.40;99.20
24041;DHT22;12246;47.612;18.906;2022-08-07T08:17:47;25.40;99.50
24041;DHT22;12246;47.612;18.906;2022-08-07T08:20:49;25.30;99.40
24041;DHT22;12246;47.612;18.906;2022-08-07T08:23:45;25.20;99.10
24041;DHT22;12246;47.612;18.906;2022-08-07T08:27:10;25.40;99.40
24041;DHT22;12246;47.612;18.906;2022-08-07T08:30:10;25.70;97.60
24041;DHT22;12246;47.612;18.906;2022-08-07T08:33:12;25.60;98.00
24041;DHT22;12246;47.612;18.906;2022-08-07T08:36:09;25.40;98.90
24041;DHT22;12246;47.612;18.906;2022-08-07T08:39:04;25.50;97.90
24041;DHT22;12246;47.612;18.906;2022-08-07T08:42:03;25.80;97.60
24041;DHT22;12246;47.612;18.906;2022-08-07T08:45:18;26.20;97.30
24041;DHT22;12246;47.612;18.906;2022-08-07T08:48:45;26.40;96.60
24041;DHT22;12246;47.612;18.906;2022-08-07T08:51:55;26.70;96.20
24041;DHT22;12246;47.612;18.906;2022-08-07T08:59:07;25.70;97.00
24041;DHT22;12246;47.612;18.906;2022-08-07T09:08:51;27.10;96.60
24041;DHT22;12246;47.612;18.906;2022-08-07T09:11:54;28.10;95.50
24041;DHT22;12246;47.612;18.906;2022-08-07T09:15:18;28.40;93.10
24041;DHT22;12246;47.612;18.906;2022-08-07T09:21:32;28.40;91.60
24041;DHT22;12246;47.612;18.906;2022-08-07T09:25:06;27.80;92.10
24041;DHT22;12246;47.612;18.906;2022-08-07T09:28:39;27.90;93.30
24041;DHT22;12246;47.612;18.906;2022-08-07T09:38:35;27.00;93.00
24041;DHT22;12246;47.612;18.906;2022-08-07T09:41:45;26.80;93.60
24041;DHT22;12246;47.612;18.906;2022-08-07T09:49:14;27.40;93.50
24041;DHT22;12246;47.612;18.906;2022-08-07T09:52:57;27.30;92.80
24041;DHT22;12246;47.612;18.906;2022-08-07T10:16:08;27.90;92.00
24041;DHT22;12246;47.612;18.906;2022-08-07T10:29:16;27.90;90.60
24041;DHT22;12246;47.612;18.906;2022-08-07T10:32:41;28.00;90.90
24041;DHT22;12246;47.612;18.906;2022-08-07T10:42:45;29.10;88.90
24041;DHT22;12246;47.612;18.906;2022-08-07T10:45:48;28.50;88.00
24041;DHT22;12246;47.612;18.906;2022-08-07T10:49:07;28.10;90.30
24041;DHT22;12246;47.612;18.906;2022-08-07T10:52:09;28.30;89.70
24041;DHT22;12246;47.612;18.906;2022-08-07T10:55:13;28.40;90.30
24041;DHT22;12246;47.612;18.906;2022-08-07T11:02:14;27.80;90.60
24041;DHT22;12246;47.612;18.906;2022-08-07T11:08:52;27.50;90.10
24041;DHT22;12246;47.612;18.906;2022-08-07T11:12:10;27.20;91.40
24041;DHT22;12246;47.612;18.906;2022-08-07T11:15:17;27.20;90.80
24041;DHT22;12246;47.612;18.906;2022-08-07T11:18:41;27.20;91.10
24041;DHT22;12246;47.612;18.906;2022-08-07T11:21:49;27.40;91.10
24041;DHT22;12246;47.612;18.906;2022-08-07T11:28:07;27.20;90.80
24041;DHT22;12246;47.612;18.906;2022-08-07T11:31:33;27.30;91.90
24041;DHT22;12246;47.612;18.906;2022-08-07T11:34:50;27.60;90.90
24041;DHT22;12246;47.612;18.906;2022-08-07T11:37:55;27.40;91.10
24041;DHT22;12246;47.612;18.906;2022-08-07T11:41:14;27.20;91.10
24041;DHT22;12246;47.612;18.906;2022-08-07T11:44:43;27.30;91.90
24041;DHT22;12246;47.612;18.906;2022-08-07T11:57:59;28.90;88.70
24041;DHT22;12246;47.612;18.906;2022-08-07T12:01:23;28.70;87.50
24041;DHT22;12246;47.612;18.906;2022-08-07T12:08:06;29.10;86.50
24041;DHT22;12246;47.612;18.906;2022-08-07T12:11:26;29.20;85.70
24041;DHT22;12246;47.612;18.906;2022-08-07T12:14:25;29.40;87.10
24041;DHT22;12246;47.612;18.906;2022-08-07T12:17:25;29.70;87.50
24041;DHT22;12246;47.612;18.906;2022-08-07T12:20:34;29.90;84.70
24041;DHT22;12246;47.612;18.906;2022-08-07T12:23:34;29.70;85.20
24041;DHT22;12246;47.612;18.906;2022-08-07T12:30:07;29.70;83.70
24041;DHT22;12246;47.612;18.906;2022-08-07T12:33:14;29.60;84.50
24041;DHT22;12246;47.612;18.906;2022-08-07T12:36:20;29.60;84.80
24041;DHT22;12246;47.612;18.906;2022-08-07T12:39:25;29.80;83.60
24041;DHT22;12246;47.612;18.906;2022-08-07T12:42:36;29.80;84.70
24041;DHT22;12246;47.612;18.906;2022-08-07T12:45:53;29.70;82.70
24041;DHT22;12246;47.612;18.906;2022-08-07T12:55:41;29.30;83.60
24041;DHT22;12246;47.612;18.906;2022-08-07T12:58:56;29.40;83.90
24041;DHT22;12246;47.612;18.906;2022-08-07T13:02:11;29.30;85.20
24041;DHT22;12246;47.612;18.906;2022-08-07T13:05:13;29.10;83.80
24041;DHT22;12246;47.612;18.906;2022-08-07T13:08:33;29.40;85.50
24041;DHT22;12246;47.612;18.906;2022-08-07T13:12:10;29.60;83.50
24041;DHT22;12246;47.612;18.906;2022-08-07T13:15:19;29.30;83.20
24041;DHT22;12246;47.612;18.906;2022-08-07T13:18:59;29.40;83.50
24041;DHT22;12246;47.612;18.906;2022-08-07T13:22:17;29.50;84.30
24041;DHT22;12246;47.612;18.906;2022-08-07T13:28:29;29.20;83.30
24041;DHT22;12246;47.612;18.906;2022-08-07T13:31:40;29.10;83.70
24041;DHT22;12246;47.612;18.906;2022-08-07T13:38:07;29.60;83.20
24041;DHT22;12246;47.612;18.906;2022-08-07T13:44:26;29.40;84.40
24041;DHT22;12246;47.612;18.906;2022-08-07T13:47:29;29.70;83.60
24041;DHT22;12246;47.612;18.906;2022-08-07T13:50:41;29.90;83.70
24041;DHT22;12246;47.612;18.906;2022-08-07T13:53:52;30.00;82.60
24041;DHT22;12246;47.612;18.906;2022-08-07T13:56:54;29.80;81.20
24041;DHT22;12246;47.612;18.906;2022-08-07T13:59:51;29.70;82.10
24041;DHT22;12246;47.612;18.906;2022-08-07T14:02:48;29.60;82.20
24041;DHT22;12246;47.612;18.906;2022-08-07T14:05:49;29.70;80.80
24041;DHT22;12246;47.612;18.906;2022-08-07T14:08:46;29.80;83.20
24041;DHT22;12246;47.612;18.906;2022-08-07T14:11:48;29.80;83.20
24041;DHT22;12246;47.612;18.906;2022-08-07T14:14:59;29.90;81.30
24041;DHT22;12246;47.612;18.906;2022-08-07T14:17:53;29.80;81.90
24041;DHT22;12246;47.612;18.906;2022-08-07T14:24:28;29.60;80.90
24041;DHT22;12246;47.612;18.906;2022-08-07T14:27:46;29.50;82.70
24041;DHT22;12246;47.612;18.906;2022-08-07T14:30:59;29.50;82.70
24041;DHT22;12246;47.612;18.906;2022-08-07T14:33:54;29.70;82.30
24041;DHT22;12246;47.612;18.906;2022-08-07T14:36:49;29.80;81.50
24041;DHT22;12246;47.612;18.906;2022-08-07T14:39:48;29.80;81.40
24041;DHT22;12246;47.612;18.906;2022-08-07T14:46:20;29.30;81.60
24041;DHT22;12246;47.612;18.906;2022-08-07T14:49:30;29.10;82.70
24041;DHT22;12246;47.612;18.906;2022-08-07T14:52:44;29.00;83.70
24041;DHT22;12246;47.612;18.906;2022-08-07T14:55:41;29.00;85.40
24041;DHT22;12246;47.612;18.906;2022-08-07T14:58:50;29.10;84.40
24041;DHT22;12246;47.612;18.906;2022-08-07T15:01:46;29.00;83.90
24041;DHT22;12246;47.612;18.906;2022-08-07T15:04:44;28.90;84.30
24041;DHT22;12246;47.612;18.906;2022-08-07T15:07:45;28.80;84.60
24041;DHT22;12246;47.612;18.906;2022-08-07T15:10:43;28.70;84.20
24041;DHT22;12246;47.612;18.906;2022-08-07T15:13:55;28.80;85.30
24041;DHT22;12246;47.612;18.906;2022-08-07T15:20:14;29.00;84.20
24041;DHT22;12246;47.612;18.906;2022-08-07T15:23:27;28.90;84.30
24041;DHT22;12246;47.612;18.906;2022-08-07T15:26:43;28.90;85.40
24041;DHT22;12246;47.612;18.906;2022-08-07T15:29:43;29.10;85.00
24041;DHT22;12246;47.612;18.906;2022-08-07T15:32:57;29.10;83.40
24041;DHT22;12246;47.612;18.906;2022-08-07T15:35:57;29.20;83.30
24041;DHT22;12246;47.612;18.906;2022-08-07T15:39:11;29.30;85.00
24041;DHT22;12246;47.612;18.906;2022-08-07T15:42:04;29.30;82.60
24041;DHT22;12246;47.612;18.906;2022-08-07T15:45:30;29.10;84.20
24041;DHT22;12246;47.612;18.906;2022-08-07T15:48:44;28.90;84.80
24041;DHT22;12246;47.612;18.906;2022-08-07T15:51:57;28.80;86.00
24041;DHT22;12246;47.612;18.906;2022-08-07T15:54:52;28.80;85.10
24041;DHT22;12246;47.612;18.906;2022-08-07T15:57:54;28.70;83.70
24041;DHT22;12246;47.612;18.906;2022-08-07T16:00:51;28.70;84.20
24041;DHT22;12246;47.612;18.906;2022-08-07T16:03:50;28.90;85.10
24041;DHT22;12246;47.612;18.906;2022-08-07T16:06:54;28.90;86.00
24041;DHT22;12246;47.612;18.906;2022-08-07T16:09:51;28.90;84.90
24041;DHT22;12246;47.612;18.906;2022-08-07T16:16:40;28.80;86.90
24041;DHT22;12246;47.612;18.906;2022-08-07T16:30:04;28.70;85.10
24041;DHT22;12246;47.612;18.906;2022-08-07T16:33:18;28.60;85.70
24041;DHT22;12246;47.612;18.906;2022-08-07T16:50:40;28.20;87.30
24041;DHT22;12246;47.612;18.906;2022-08-07T16:57:29;28.10;87.80
24041;DHT22;12246;47.612;18.906;2022-08-07T17:07:31;27.80;88.30
24041;DHT22;12246;47.612;18.906;2022-08-07T17:10:55;27.80;88.50
24041;DHT22;12246;47.612;18.906;2022-08-07T17:14:10;27.70;88.70
24041;DHT22;12246;47.612;18.906;2022-08-07T17:17:27;27.60;87.90
24041;DHT22;12246;47.612;18.906;2022-08-07T17:20:39;27.50;88.20
24041;DHT22;12246;47.612;18.906;2022-08-07T17:27:02;27.30;88.70
24041;DHT22;12246;47.612;18.906;2022-08-07T17:30:09;27.20;88.70
24041;DHT22;12246;47.612;18.906;2022-08-07T17:33:17;27.10;88.70
24041;DHT22;12246;47.612;18.906;2022-08-07T17:36:33;27.10;89.50
24041;DHT22;12246;47.612;18.906;2022-08-07T17:43:14;27.10;89.80
24041;DHT22;12246;47.612;18.906;2022-08-07T17:46:23;27.00;89.90
24041;DHT22;12246;47.612;18.906;2022-08-07T17:49:39;27.00;90.00
24041;DHT22;12246;47.612;18.906;2022-08-07T17:52:43;26.90;90.00
24041;DHT22;12246;47.612;18.906;2022-08-07T17:55:54;26.90;90.10
24041;DHT22;12246;47.612;18.906;2022-08-07T17:59:03;26.90;90.30
24041;DHT22;12246;47.612;18.906;2022-08-07T18:08:50;27.00;91.00
24041;DHT22;12246;47.612;18.906;2022-08-07T18:15:20;26.80;90.90
24041;DHT22;12246;47.612;18.906;2022-08-07T18:18:16;26.80;90.90
24041;DHT22;12246;47.612;18.906;2022-08-07T18:21:33;26.70;91.00
24041;DHT22;12246;47.612;18.906;2022-08-07T18:24:49;26.70;91.10
24041;DHT22;12246;47.612;18.906;2022-08-07T18:56:50;25.80;93.40
24041;DHT22;12246;47.612;18.906;2022-08-07T19:00:09;25.80;93.40
24041;DHT22;12246;47.612;18.906;2022-08-07T19:03:31;25.80;93.80
24041;DHT22;12246;47.612;18.906;2022-08-07T19:13:17;25.40;94.30
24041;DHT22;12246;47.612;18.906;2022-08-07T19:16:43;25.40;94.50
24041;DHT22;12246;47.612;18.906;2022-08-07T19:20:10;25.30;94.90
24041;DHT22;12246;47.612;18.906;2022-08-07T19:23:26;25.30;95.10
24041;DHT22;12246;47.612;18.906;2022-08-07T19:26:42;25.20;95.20
24041;DHT22;12246;47.612;18.906;2022-08-07T19:29:57;25.10;95.40
24041;DHT22;12246;47.612;18.906;2022-08-07T19:33:12;25.10;95.50
24041;DHT22;12246;47.612;18.906;2022-08-07T19:36:11;25.00;95.50
24041;DHT22;12246;47.612;18.906;2022-08-07T19:39:05;25.00;95.60
24041;DHT22;12246;47.612;18.906;2022-08-07T19:42:00;25.00;95.80
24041;DHT22;12246;47.612;18.906;2022-08-07T19:45:26;25.00;96.10
24041;DHT22;12246;47.612;18.906;2022-08-07T19:48:46;25.00;96.20
24041;DHT22;12246;47.612;18.906;2022-08-07T19:51:48;25.00;96.20
24041;DHT22;12246;47.612;18.906;2022-08-07T19:54:52;25.00;96.50
24041;DHT22;12246;47.612;18.906;2022-08-07T19:57:53;24.90;96.80
24041;DHT22;12246;47.612;18.906;2022-08-07T20:01:04;24.80;96.80
24041;DHT22;12246;47.612;18.906;2022-08-07T20:04:00;24.60;97.20
24041;DHT22;12246;47.612;18.906;2022-08-07T20:06:55;24.60;97.70
24041;DHT22;12246;47.612;18.906;2022-08-07T20:09:48;24.50;97.90
24041;DHT22;12246;47.612;18.906;2022-08-07T20:13:05;24.40;98.10
24041;DHT22;12246;47.612;18.906;2022-08-07T20:16:19;24.40;97.90
24041;DHT22;12246;47.612;18.906;2022-08-07T20:19:29;24.30;98.20
24041;DHT22;12246;47.612;18.906;2022-08-07T20:22:43;24.30;98.30
24041;DHT22;12246;47.612;18.906;2022-08-07T20:25:38;24.30;98.20
24041;DHT22;12246;47.612;18.906;2022-08-07T20:28:45;24.30;98.40
24041;DHT22;12246;47.612;18.906;2022-08-07T20:31:43;24.10;98.90
24041;DHT22;12246;47.612;18.906;2022-08-07T20:34:38;24.10;99.30
24041;DHT22;12246;47.612;18.906;2022-08-07T20:37:51;23.80;99.90
24041;DHT22;12246;47.612;18.906;2022-08-07T20:40:56;23.70;99.90
24041;DHT22;12246;47.612;18.906;2022-08-07T20:43:56;23.60;99.90
24041;DHT22;12246;47.612;18.906;2022-08-07T20:46:50;23.60;99.90
24041;DHT22;12246;47.612;18.906;2022-08-07T20:49:59;23.60;99.90
24041;DHT22;12246;47.612;18.906;2022-08-07T20:52:54;23.60;99.90
24041;DHT22;12246;47.612;18.906;2022-08-07T20:55:51;23.60;99.90
24041;DHT22;12246;47.612;18.906;2022-08-07T20:58:49;23.50;99.30
24041;DHT22;12246;47.612;18.906;2022-08-07T21:01:44;23.40;98.30
24041;DHT22;12246;47.612;18.906;2022-08-07T21:04:49;23.30;96.70
24041;DHT22;12246;47.612;18.906;2022-08-07T21:07:41;23.30;96.80
24041;DHT22;12246;47.612;18.906;2022-08-07T21:10:42;23.30;96.80
24041;DHT22;12246;47.612;18.906;2022-08-07T21:13:37;23.20;96.40
24041;DHT22;12246;47.612;18.906;2022-08-07T21:16:54;23.10;96.30
24041;DHT22;12246;47.612;18.906;2022-08-07T21:20:12;23.20;95.90
24041;DHT22;12246;47.612;18.906;2022-08-07T21:23:26;23.10;95.50
24041;DHT22;12246;47.612;18.906;2022-08-07T21:29:42;22.90;95.10
24041;DHT22;12246;47.612;18.906;2022-08-07T21:35:52;22.80;95.90
24041;DHT22;12246;47.612;18.906;2022-08-07T21:39:06;22.80;96.10
24041;DHT22;12246;47.612;18.906;2022-08-07T21:45:51;22.70;96.00
24041;DHT22;12246;47.612;18.906;2022-08-07T21:49:20;22.60;95.90
24041;DHT22;12246;47.612;18.906;2022-08-07T21:52:46;22.50;96.20
24041;DHT22;12246;47.612;18.906;2022-08-07T21:59:40;22.50;96.50
24041;DHT22;12246;47.612;18.906;2022-08-07T22:03:27;22.40;95.90
24041;DHT22;12246;47.612;18.906;2022-08-07T22:06:34;22.30;95.90
24041;DHT22;12246;47.612;18.906;2022-08-07T22:09:38;22.30;95.70
24041;DHT22;12246;47.612;18.906;2022-08-07T22:22:13;22.20;96.00
24041;DHT22;12246;47.612;18.906;2022-08-07T22:25:26;22.10;96.30
24041;DHT22;12246;47.612;18.906;2022-08-07T22:28:53;22.10;98.30
24041;DHT22;12246;47.612;18.906;2022-08-07T22:35:16;22.00;96.90
24041;DHT22;12246;47.612;18.906;2022-08-07T22:38:34;21.90;99.50
24041;DHT22;12246;47.612;18.906;2022-08-07T22:41:48;21.90;99.80
24041;DHT22;12246;47.612;18.906;2022-08-07T22:45:04;21.80;99.80
24041;DHT22;12246;47.612;18.906;2022-08-07T22:58:33;21.70;99.30
24041;DHT22;12246;47.612;18.906;2022-08-07T23:01:52;21.70;99.20
24041;DHT22;12246;47.612;18.906;2022-08-07T23:12:08;21.70;99.00
24041;DHT22;12246;47.612;18.906;2022-08-07T23:19:19;21.60;99.50
24041;DHT22;12246;47.612;18.906;2022-08-07T23:30:11;21.20;99.90
24041;DHT22;12246;47.612;18.906;2022-08-07T23:40:35;21.10;99.70
24041;DHT22;12246;47.612;18.906;2022-08-07T23:50:25;21.00;99.90
24041;DHT22;12246;47.612;18.906;2022-08-07T23:53:35;21.00;99.90
